createdAt,value
2023-04-07T00:07:24.298Z,8.63
2023-04-07T00:17:25.865Z,8.63
2023-04-07T00:27:27.374Z,8.69
2023-04-07T00:37:28.887Z,8.72
2023-04-07T00:47:30.381Z,8.77
2023-04-07T00:57:31.781Z,8.74
2023-04-07T01:07:39.894Z,8.75
2023-04-07T01:17:48.403Z,8.83
2023-04-07T01:27:52.994Z,8.84
2023-04-07T01:37:56.023Z,8.93
2023-04-07T01:47:58.075Z,9.04
2023-04-07T01:58:04.557Z,9.17
2023-04-07T02:08:08.716Z,9.17
2023-04-07T02:18:12.756Z,9.25
2023-04-07T02:28:14.275Z,9.25
2023-04-07T02:38:15.942Z,9.29
2023-04-07T02:48:17.451Z,9.27
2023-04-07T02:58:18.930Z,9.37
2023-04-07T03:08:20.570Z,9.40
2023-04-07T03:18:21.978Z,9.34
2023-04-07T03:28:23.563Z,9.38
2023-04-07T03:38:26.234Z,9.36
2023-04-07T03:48:29.281Z,9.26
2023-04-07T03:58:30.880Z,9.26
2023-04-07T04:08:32.371Z,9.25
2023-04-07T04:18:33.746Z,9.22
2023-04-07T04:28:35.250Z,9.27
2023-04-07T04:38:36.834Z,9.23
2023-04-07T04:48:38.313Z,9.22
2023-04-07T04:58:46.797Z,9.16
2023-04-07T05:08:48.317Z,9.18
2023-04-07T05:18:49.771Z,9.10
2023-04-07T05:28:51.129Z,9.11
2023-04-07T05:38:52.630Z,9.03
2023-04-07T05:48:54.022Z,9.02
2023-04-07T05:58:56.201Z,9.01
2023-04-07T06:08:57.748Z,9.03
2023-04-07T06:18:59.263Z,9.04
2023-04-07T06:29:00.835Z,9.02
2023-04-07T06:39:02.291Z,9.02
2023-04-07T06:49:04.015Z,9.04
2023-04-07T06:59:05.518Z,9.15
2023-04-07T07:09:06.859Z,9.24
2023-04-07T07:19:08.245Z,9.29
2023-04-07T07:29:09.637Z,9.33
2023-04-07T07:39:11.253Z,9.30
2023-04-07T07:49:12.761Z,9.41
2023-04-07T07:59:15.190Z,9.46
2023-04-07T08:09:19.018Z,9.56
2023-04-07T08:19:20.604Z,9.59
2023-04-07T08:29:22.069Z,9.61
2023-04-07T08:39:25.413Z,9.62
2023-04-07T08:49:29.676Z,9.60
2023-04-07T08:59:33.648Z,9.55
2023-04-07T09:09:35.625Z,9.67
2023-04-07T09:19:37.264Z,9.68
2023-04-07T09:29:40.342Z,9.58
2023-04-07T09:39:50.599Z,9.66
2023-04-07T09:49:54.182Z,9.63
2023-04-07T09:59:57.226Z,9.61
2023-04-07T10:09:58.665Z,9.73
2023-04-07T10:20:01.658Z,9.75
2023-04-07T10:30:05.217Z,9.85
2023-04-07T10:40:18.981Z,9.94
2023-04-07T10:50:22.855Z,9.94
2023-04-07T11:00:24.485Z,9.98
2023-04-07T11:10:26.297Z,10.07
2023-04-07T11:20:47.347Z,10.10
2023-04-07T11:30:53.927Z,10.17
2023-04-07T11:40:57.183Z,10.28
2023-04-07T11:50:59.918Z,10.39
2023-04-07T12:01:06.680Z,10.51
2023-04-07T12:11:09.350Z,10.55
2023-04-07T12:21:10.741Z,10.50
2023-04-07T12:31:12.321Z,10.51
2023-04-07T12:41:13.768Z,10.60
2023-04-07T12:51:15.346Z,10.67
2023-04-07T13:01:17.132Z,10.75
2023-04-07T13:11:18.790Z,10.81
2023-04-07T13:21:43.758Z,10.84
2023-04-07T13:31:41.616Z,10.93
2023-04-07T13:41:43.103Z,10.99
2023-04-07T13:51:44.474Z,11.04
2023-04-07T14:01:45.984Z,10.93
2023-04-07T14:11:48.400Z,10.70
2023-04-07T14:21:53.513Z,10.39
2023-04-07T14:31:54.899Z,10.46
2023-04-07T14:41:56.472Z,10.40
2023-04-07T14:51:58.884Z,10.28
2023-04-07T15:02:00.398Z,10.25
2023-04-07T15:12:02.221Z,10.26
2023-04-07T15:22:03.941Z,10.19
2023-04-07T15:32:05.658Z,10.29
2023-04-07T15:42:12.550Z,10.22
2023-04-07T15:52:14.018Z,10.26
2023-04-07T16:02:15.687Z,10.18
2023-04-07T16:12:18.438Z,9.98
2023-04-07T16:22:19.779Z,10.01
2023-04-07T16:32:21.234Z,10.03
2023-04-07T16:42:25.533Z,10.03
2023-04-07T16:52:27.014Z,10.01
2023-04-07T17:02:28.617Z,10.04
2023-04-07T17:12:30.250Z,9.98
2023-04-07T17:22:31.741Z,9.98
2023-04-07T17:32:33.138Z,10.01
2023-04-07T17:42:34.636Z,9.95
2023-04-07T17:52:36.106Z,9.88
2023-04-07T18:02:40.127Z,9.79
2023-04-07T18:12:41.835Z,9.80
2023-04-07T18:22:43.964Z,9.80
2023-04-07T18:32:46.574Z,9.71
2023-04-07T18:42:48.144Z,9.72
2023-04-07T18:52:49.732Z,9.77
2023-04-07T19:02:51.476Z,9.74
2023-04-07T19:12:52.958Z,9.73
2023-04-07T19:22:54.356Z,9.71
2023-04-07T19:32:56.562Z,9.73
2023-04-07T19:42:58.125Z,9.71
2023-04-07T19:52:59.515Z,9.60
2023-04-07T20:03:01.107Z,9.54
2023-04-07T20:13:03.779Z,9.52
2023-04-07T20:23:06.538Z,9.48
2023-04-07T20:33:08.180Z,9.55
2023-04-07T20:43:10.028Z,9.42
2023-04-07T20:53:11.429Z,9.42
2023-04-07T21:03:13.581Z,9.41
2023-04-07T21:13:15.702Z,9.31
2023-04-07T21:23:17.070Z,9.15
2023-04-07T21:33:18.436Z,9.18
2023-04-07T21:43:19.816Z,9.14
2023-04-07T21:53:21.500Z,8.99
2023-04-07T22:03:23.586Z,8.84
2023-04-07T22:13:25.380Z,8.70
2023-04-07T22:23:27.837Z,8.53
2023-04-07T22:33:29.288Z,8.53
2023-04-07T22:43:30.881Z,8.27
2023-04-07T22:53:32.485Z,8.14
2023-04-07T23:03:33.944Z,7.98
2023-04-07T23:13:35.487Z,7.79
2023-04-07T23:23:38.949Z,7.68
2023-04-07T23:33:40.472Z,7.63
2023-04-07T23:43:41.847Z,7.55
2023-04-07T23:53:43.239Z,7.46
